createdAt,value
2016-02-15T00:00:01.907Z,22.3
2016-02-15T00:01:02.910Z,22.3
2016-02-15T00:02:04.459Z,22.3
2016-02-15T00:03:06.027Z,22.3
2016-02-15T00:04:07.638Z,22.3
2016-02-15T00:05:09.156Z,22.3
2016-02-15T00:06:10.723Z,22.3
2016-02-15T00:07:12.287Z,22.3
2016-02-15T00:08:13.853Z,22.3
2016-02-15T00:10:17.045Z,22.2
2016-02-15T00:11:18.032Z,22.3
2016-02-15T00:12:19.614Z,22.3
2016-02-15T00:13:21.162Z,22.3
2016-02-15T00:14:22.728Z,22.3
2016-02-15T00:15:24.418Z,22.3
2016-02-15T00:16:25.921Z,22.3
2016-02-15T00:17:27.423Z,22.3
2016-02-15T00:18:28.989Z,22.3
2016-02-15T00:19:30.553Z,22.3
2016-02-15T00:20:32.182Z,22.3
2016-02-15T00:21:33.184Z,22.3
2016-02-15T00:22:34.749Z,22.3
2016-02-15T00:23:36.314Z,22.4
2016-02-15T00:24:37.864Z,22.3
2016-02-15T00:25:39.430Z,22.3
2016-02-15T00:26:41.010Z,22.4
2016-02-15T00:27:42.560Z,22.3
2016-02-15T00:28:44.125Z,22.3
2016-02-15T00:29:45.705Z,22.3
2016-02-15T00:30:47.318Z,22.3
2016-02-15T00:31:48.321Z,22.3
2016-02-15T00:32:49.885Z,22.3
2016-02-15T00:33:51.452Z,22.3
2016-02-15T00:34:53.032Z,22.3
2016-02-15T00:35:54.581Z,22.3
2016-02-15T00:36:56.163Z,22.3
2016-02-15T00:37:57.727Z,22.3
2016-02-15T00:38:59.276Z,22.3
2016-02-15T00:40:00.842Z,22.3
2016-02-15T00:41:02.470Z,22.3
2016-02-15T00:42:03.473Z,22.3
2016-02-15T00:43:05.037Z,22.3
2016-02-15T00:44:06.606Z,22.3
2016-02-15T00:45:08.171Z,22.3
2016-02-15T00:46:09.720Z,22.3
2016-02-15T00:47:11.300Z,22.3
2016-02-15T00:48:12.851Z,22.3
2016-02-15T00:49:14.416Z,22.3
2016-02-15T00:50:15.997Z,22.2
2016-02-15T00:51:17.609Z,22.2
2016-02-15T00:52:18.611Z,22.2
2016-02-15T00:53:20.192Z,22.2
2016-02-15T00:54:21.742Z,22.2
2016-02-15T00:55:23.307Z,22.2
2016-02-15T00:56:24.888Z,22.1
2016-02-15T00:57:26.438Z,22.1
2016-02-15T00:58:28.003Z,22.1
2016-02-15T00:59:29.568Z,22.1
2016-02-15T01:00:31.132Z,22.1
2016-02-15T01:01:32.511Z,22.1
2016-02-15T01:02:33.498Z,22.1
2016-02-15T01:03:34.578Z,22
2016-02-15T01:04:35.643Z,22
2016-02-15T01:05:36.693Z,22
2016-02-15T01:06:37.759Z,22
2016-02-15T01:07:38.808Z,22
2016-02-15T01:08:39.873Z,22
2016-02-15T01:09:40.923Z,22
2016-02-15T01:10:41.988Z,21.9
2016-02-15T01:11:42.850Z,21.9
2016-02-15T01:12:43.851Z,21.9
2016-02-15T01:13:44.891Z,21.9
2016-02-15T01:14:45.694Z,21.9
2016-02-15T01:15:46.483Z,21.9
2016-02-15T01:16:47.286Z,21.9
2016-02-15T01:17:48.075Z,21.9
2016-02-15T01:18:49.121Z,21.9
2016-02-15T01:19:50.197Z,21.8
2016-02-15T01:20:53.445Z,21.8
2016-02-15T01:21:52.366Z,21.8
2016-02-15T01:22:53.350Z,21.8
2016-02-15T01:23:54.397Z,21.8
2016-02-15T01:24:55.462Z,21.7
2016-02-15T01:25:56.509Z,21.7
2016-02-15T01:26:57.572Z,21.7
2016-02-15T01:27:58.684Z,21.7
2016-02-15T01:28:59.686Z,21.7
2016-02-15T01:30:00.750Z,21.7
2016-02-15T01:31:01.816Z,21.7
2016-02-15T01:32:02.943Z,21.7
2016-02-15T01:33:03.930Z,21.7
2016-02-15T01:34:04.995Z,21.6
2016-02-15T01:35:06.325Z,21.6
2016-02-15T01:36:07.628Z,21.6
2016-02-15T01:37:08.942Z,21.6
2016-02-15T01:38:10.259Z,21.6
2016-02-15T01:39:11.573Z,21.6
2016-02-15T01:40:13.123Z,21.5
2016-02-15T01:41:14.704Z,21.5
2016-02-15T01:42:16.315Z,21.5
2016-02-15T01:43:17.318Z,21.5
2016-02-15T01:44:18.884Z,21.5
2016-02-15T01:45:20.448Z,21.5
2016-02-15T01:46:22.014Z,21.5
2016-02-15T01:47:23.579Z,21.5
2016-02-15T01:48:25.144Z,21.5
2016-02-15T01:49:26.726Z,21.5
2016-02-15T01:50:28.291Z,21.5
2016-02-15T01:51:29.871Z,21.4
2016-02-15T01:52:31.483Z,21.4
2016-02-15T01:53:32.470Z,21.4
2016-02-15T01:54:34.035Z,21.4
2016-02-15T01:55:35.616Z,21.4
2016-02-15T01:56:33.385Z,21.4
2016-02-15T01:57:34.934Z,21.4
2016-02-15T01:58:32.703Z,21.4
2016-02-15T01:59:30.471Z,21.4
2016-02-15T02:00:28.238Z,21.3
2016-02-15T02:01:26.008Z,21.3
2016-02-15T02:02:23.823Z,21.4
2016-02-15T02:03:24.825Z,21.3
2016-02-15T02:04:22.594Z,21.3
2016-02-15T02:05:20.362Z,21.3
2016-02-15T02:06:18.130Z,21.3
2016-02-15T02:07:16.149Z,21.3
2016-02-15T02:08:13.932Z,21.3
2016-02-15T02:09:11.935Z,21.3
2016-02-15T02:10:09.954Z,21.3
2016-02-15T02:11:07.987Z,21.3
2016-02-15T02:12:06.034Z,21.3
2016-02-15T02:13:07.053Z,21.3
2016-02-15T02:14:05.071Z,21.3
2016-02-15T02:15:03.089Z,21.3
2016-02-15T02:16:01.108Z,21.2
2016-02-15T02:16:59.126Z,21.2
2016-02-15T02:17:57.159Z,21.2
2016-02-15T02:18:55.178Z,21.2
2016-02-15T02:19:53.181Z,21.2
2016-02-15T02:20:51.199Z,21.2
2016-02-15T02:21:49.280Z,21.2
2016-02-15T02:22:50.283Z,21.2
2016-02-15T02:23:48.301Z,21.2
2016-02-15T02:24:46.319Z,21.2
2016-02-15T02:25:44.338Z,21.1
2016-02-15T02:26:42.480Z,21.1
2016-02-15T02:27:40.391Z,21.1
2016-02-15T02:28:38.408Z,21.2
2016-02-15T02:29:36.426Z,21.1
2016-02-15T02:30:34.445Z,21.1
2016-02-15T02:31:32.526Z,21.1
2016-02-15T02:32:33.529Z,21.1
2016-02-15T02:33:31.546Z,21.1
2016-02-15T02:34:29.565Z,21.1
2016-02-15T02:35:27.583Z,21.1
2016-02-15T02:36:25.602Z,21.1
2016-02-15T02:37:23.620Z,21.1
2016-02-15T02:38:21.888Z,21.1
2016-02-15T02:39:20.173Z,21.1
2016-02-15T02:40:18.440Z,21.1
2016-02-15T02:41:16.771Z,21.1
2016-02-15T02:42:17.790Z,21.1
2016-02-15T02:43:16.042Z,21.1
2016-02-15T02:44:14.326Z,21.1
2016-02-15T02:45:12.595Z,21.1
2016-02-15T02:46:10.909Z,21
2016-02-15T02:47:09.256Z,21.1
2016-02-15T02:48:07.428Z,21
2016-02-15T02:49:05.697Z,21.1
2016-02-15T02:50:03.965Z,21
2016-02-15T02:51:02.311Z,21
2016-02-15T02:52:03.314Z,21
2016-02-15T02:53:01.847Z,21
2016-02-15T02:54:00.366Z,21
2016-02-15T02:54:58.884Z,21
2016-02-15T02:55:57.418Z,21
2016-02-15T02:56:55.952Z,21
2016-02-15T02:57:54.486Z,21
2016-02-15T02:58:53.005Z,21
2016-02-15T02:59:51.522Z,21
2016-02-15T03:00:50.104Z,21
2016-02-15T03:01:51.122Z,21
2016-02-15T03:02:49.640Z,21
2016-02-15T03:03:48.174Z,21
2016-02-15T03:04:46.707Z,21
2016-02-15T03:05:45.211Z,20.9
2016-02-15T03:06:43.745Z,20.9
2016-02-15T03:07:42.279Z,20.9
2016-02-15T03:08:40.797Z,20.9
2016-02-15T03:09:39.331Z,20.9
2016-02-15T03:10:37.912Z,20.9
2016-02-15T03:11:38.915Z,20.9
2016-02-15T03:12:37.432Z,20.9
2016-02-15T03:13:35.967Z,20.9
2016-02-15T03:14:34.484Z,20.9
2016-02-15T03:15:33.020Z,20.9
2016-02-15T03:16:31.553Z,20.9
2016-02-15T03:17:30.071Z,20.9
2016-02-15T03:18:28.589Z,20.9
2016-02-15T03:19:27.123Z,20.9
2016-02-15T03:20:25.704Z,20.9
2016-02-15T03:21:26.706Z,20.9
2016-02-15T03:22:25.241Z,20.9
2016-02-15T03:23:23.759Z,20.9
2016-02-15T03:24:22.294Z,20.9
2016-02-15T03:25:20.811Z,20.9
2016-02-15T03:26:19.345Z,20.9
2016-02-15T03:27:17.864Z,20.9
2016-02-15T03:28:16.398Z,20.9
2016-02-15T03:29:14.916Z,20.9
2016-02-15T03:30:13.496Z,20.9
2016-02-15T03:31:14.516Z,20.9
2016-02-15T03:32:13.033Z,20.9
2016-02-15T03:33:11.583Z,20.9
2016-02-15T03:34:10.085Z,20.9
2016-02-15T03:35:08.619Z,20.9
2016-02-15T03:36:07.151Z,20.9
2016-02-15T03:37:05.669Z,20.9
2016-02-15T03:38:04.218Z,20.9
2016-02-15T03:39:02.706Z,20.9
2016-02-15T03:40:01.552Z,20.9
2016-02-15T03:41:02.555Z,20.9
2016-02-15T03:42:01.339Z,20.9
2016-02-15T03:43:00.138Z,20.9
2016-02-15T03:43:58.641Z,20.9
2016-02-15T03:44:57.534Z,20.9
2016-02-15T03:45:56.193Z,20.9
2016-02-15T03:46:54.993Z,20.8
2016-02-15T03:47:53.792Z,20.8
2016-02-15T03:48:52.576Z,20.8
2016-02-15T03:49:51.392Z,20.8
2016-02-15T03:51:51.178Z,20.8
2016-02-15T03:52:49.947Z,20.8
2016-02-15T03:53:48.731Z,20.8
2016-02-15T03:54:47.515Z,20.8
2016-02-15T03:55:46.298Z,20.8
2016-02-15T03:56:45.066Z,20.8
2016-02-15T03:57:43.850Z,20.8
2016-02-15T03:58:42.635Z,20.8
2016-02-15T03:59:41.466Z,20.8
2016-02-15T04:00:42.468Z,20.8
2016-02-15T04:01:41.268Z,20.8
2016-02-15T04:02:40.036Z,20.8
2016-02-15T04:03:38.820Z,20.8
2016-02-15T04:04:37.588Z,20.8
2016-02-15T04:05:36.371Z,20.8
2016-02-15T04:06:35.157Z,20.8
2016-02-15T04:07:33.940Z,20.8
2016-02-15T04:08:32.708Z,20.8
2016-02-15T04:09:31.555Z,20.8
2016-02-15T04:10:32.682Z,20.8
2016-02-15T04:11:31.591Z,20.8
2016-02-15T04:12:30.376Z,20.7
2016-02-15T04:13:29.409Z,20.8
2016-02-15T04:14:28.178Z,20.7
2016-02-15T04:15:27.196Z,20.7
2016-02-15T04:16:26.026Z,20.8
2016-02-15T04:17:25.014Z,20.7
2016-02-15T04:18:24.048Z,20.7
2016-02-15T04:19:23.144Z,20.7
2016-02-15T04:20:24.147Z,20.7
2016-02-15T04:21:23.181Z,20.7
2016-02-15T04:22:22.214Z,20.7
2016-02-15T04:23:21.248Z,20.7
2016-02-15T04:24:20.283Z,20.7
2016-02-15T04:25:19.316Z,20.7
2016-02-15T04:26:18.351Z,20.7
2016-02-15T04:27:17.369Z,20.7
2016-02-15T04:28:16.402Z,20.7
2016-02-15T04:29:15.500Z,20.7
2016-02-15T04:30:16.502Z,20.7
2016-02-15T04:31:15.535Z,20.7
2016-02-15T04:32:14.570Z,20.7
2016-02-15T04:33:13.604Z,20.7
2016-02-15T04:34:15.669Z,20.7
2016-02-15T04:35:14.702Z,20.7
2016-02-15T04:36:10.705Z,20.7
2016-02-15T04:37:09.739Z,20.7
2016-02-15T04:38:08.770Z,20.7
2016-02-15T04:39:07.852Z,20.7
2016-02-15T04:40:08.854Z,20.7
2016-02-15T04:41:07.903Z,20.7
2016-02-15T04:42:06.938Z,20.7
2016-02-15T04:43:05.971Z,20.7
2016-02-15T04:44:05.115Z,20.7
2016-02-15T04:45:04.040Z,20.7
2016-02-15T04:46:03.057Z,20.7
2016-02-15T04:47:02.092Z,20.7
2016-02-15T04:48:01.142Z,20.7
2016-02-15T04:49:00.222Z,20.7
2016-02-15T04:50:01.225Z,20.7
2016-02-15T04:51:00.259Z,20.7
2016-02-15T04:51:59.292Z,20.7
2016-02-15T04:52:58.327Z,20.7
2016-02-15T04:53:57.361Z,20.7
2016-02-15T04:54:56.394Z,20.7
2016-02-15T04:55:55.429Z,20.7
2016-02-15T04:56:54.462Z,20.7
2016-02-15T04:57:53.496Z,20.7
2016-02-15T04:58:52.592Z,20.7
2016-02-15T04:59:53.595Z,20.6
2016-02-15T05:00:52.629Z,20.7
2016-02-15T05:01:51.664Z,20.7
2016-02-15T05:02:50.697Z,20.6
2016-02-15T05:03:49.746Z,20.7
2016-02-15T05:04:48.766Z,20.7
2016-02-15T05:05:47.799Z,20.6
2016-02-15T05:06:46.832Z,20.6
2016-02-15T05:07:45.867Z,20.6
2016-02-15T05:08:44.994Z,20.6
2016-02-15T05:09:45.966Z,20.6
2016-02-15T05:10:45.000Z,20.6
2016-02-15T05:11:44.035Z,20.6
2016-02-15T05:12:43.068Z,20.7
2016-02-15T05:13:42.118Z,20.6
2016-02-15T05:14:41.135Z,20.6
2016-02-15T05:15:40.170Z,20.6
2016-02-15T05:16:39.220Z,20.6
2016-02-15T05:17:38.237Z,20.6
2016-02-15T05:18:37.334Z,20.6
2016-02-15T05:19:38.337Z,20.6
2016-02-15T05:20:37.370Z,20.6
2016-02-15T05:21:36.670Z,20.6
2016-02-15T05:22:35.704Z,20.6
2016-02-15T05:23:34.738Z,20.6
2016-02-15T05:24:33.756Z,20.6
2016-02-15T05:25:33.056Z,20.6
2016-02-15T05:26:32.355Z,20.6
2016-02-15T05:27:31.640Z,20.6
2016-02-15T05:28:30.970Z,20.6
2016-02-15T05:29:31.988Z,20.6
2016-02-15T05:30:31.258Z,20.6
2016-02-15T05:31:30.572Z,20.6
2016-02-15T05:32:29.841Z,20.6
2016-02-15T05:33:29.124Z,20.6
2016-02-15T05:34:28.408Z,20.6
2016-02-15T05:35:27.692Z,20.6
2016-02-15T05:36:26.992Z,20.6
2016-02-15T05:37:26.526Z,20.6
2016-02-15T05:38:26.121Z,20.6
2016-02-15T05:39:27.125Z,20.6
2016-02-15T05:40:26.674Z,20.6
2016-02-15T05:41:26.207Z,20.6
2016-02-15T05:42:25.757Z,20.6
2016-02-15T05:43:25.292Z,20.6
2016-02-15T05:44:24.857Z,20.6
2016-02-15T05:45:24.391Z,20.6
2016-02-15T05:46:23.925Z,20.6
2016-02-15T05:47:23.459Z,20.6
2016-02-15T05:48:23.056Z,20.6
2016-02-15T05:49:24.089Z,20.6
2016-02-15T05:50:23.607Z,20.5
2016-02-15T05:51:23.142Z,20.5
2016-02-15T05:52:22.692Z,20.6
2016-02-15T05:53:22.240Z,20.6
2016-02-15T05:54:21.775Z,20.6
2016-02-15T05:55:21.340Z,20.6
2016-02-15T05:56:20.873Z,20.6
2016-02-15T05:57:20.392Z,20.5
2016-02-15T05:58:19.989Z,20.5
2016-02-15T05:59:20.991Z,20.5
2016-02-15T06:00:20.541Z,20.5
2016-02-15T06:01:20.074Z,20.5
2016-02-15T06:02:19.625Z,20.5
2016-02-15T06:03:19.158Z,20.5
2016-02-15T06:04:18.708Z,20.5
2016-02-15T06:05:18.241Z,20.5
2016-02-15T06:06:17.791Z,20.5
2016-02-15T06:07:17.341Z,20.5
2016-02-15T06:08:16.921Z,20.5
2016-02-15T06:09:17.924Z,20.5
2016-02-15T06:10:17.474Z,20.5
2016-02-15T06:11:17.008Z,20.5
2016-02-15T06:12:16.541Z,20.5
2016-02-15T06:13:16.091Z,20.5
2016-02-15T06:14:15.625Z,20.5
2016-02-15T06:15:15.175Z,20.5
2016-02-15T06:16:14.709Z,20.5
2016-02-15T06:17:14.258Z,20.5
2016-02-15T06:18:13.855Z,20.5
2016-02-15T06:19:14.873Z,20.5
2016-02-15T06:20:14.392Z,20.5
2016-02-15T06:21:13.956Z,20.5
2016-02-15T06:22:13.475Z,20.5
2016-02-15T06:23:13.025Z,20.5
2016-02-15T06:24:12.559Z,20.5
2016-02-15T06:25:12.217Z,20.5
2016-02-15T06:26:11.641Z,20.5
2016-02-15T06:27:11.172Z,20.5
2016-02-15T06:28:10.770Z,20.5
2016-02-15T06:29:11.791Z,20.5
2016-02-15T06:30:11.322Z,20.5
2016-02-15T06:31:10.856Z,20.5
2016-02-15T06:32:10.405Z,20.5
2016-02-15T06:33:09.939Z,20.5
2016-02-15T06:34:09.489Z,20.5
2016-02-15T06:35:09.022Z,20.5
2016-02-15T06:36:08.557Z,20.5
2016-02-15T06:37:08.106Z,20.5
2016-02-15T06:38:07.702Z,20.5
2016-02-15T06:39:08.706Z,20.5
2016-02-15T06:40:08.255Z,20.5
2016-02-15T06:41:07.788Z,20.5
2016-02-15T06:42:07.355Z,20.5
2016-02-15T06:43:06.872Z,20.5
2016-02-15T06:44:06.421Z,20.5
2016-02-15T06:45:05.956Z,20.5
2016-02-15T06:46:05.505Z,20.5
2016-02-15T06:47:05.039Z,20.5
2016-02-15T06:48:04.636Z,20.5
2016-02-15T06:49:05.638Z,20.5
2016-02-15T06:50:05.187Z,20.5
2016-02-15T06:51:04.848Z,20.5
2016-02-15T06:52:04.521Z,20.5
2016-02-15T06:53:04.320Z,20.5
2016-02-15T06:54:03.856Z,20.5
2016-02-15T06:55:03.404Z,20.5
2016-02-15T06:56:02.939Z,20.5
2016-02-15T06:57:02.489Z,20.5
2016-02-15T06:58:02.334Z,20.5
2016-02-15T06:59:03.353Z,20.5
2016-02-15T07:00:03.137Z,20.5
2016-02-15T07:01:02.936Z,20.5
2016-02-15T07:02:02.736Z,20.5
2016-02-15T07:03:02.286Z,20.5
2016-02-15T07:04:01.819Z,20.5
2016-02-15T07:05:01.353Z,20.6
2016-02-15T07:06:00.919Z,20.5
2016-02-15T07:07:00.452Z,20.6
2016-02-15T07:08:00.049Z,20.6
2016-02-15T07:09:01.036Z,20.6
2016-02-15T07:10:00.585Z,20.6
2016-02-15T07:11:00.119Z,20.6
2016-02-15T07:11:59.669Z,20.7
2016-02-15T07:12:59.234Z,20.7
2016-02-15T07:13:58.878Z,20.7
2016-02-15T07:14:58.302Z,20.7
2016-02-15T07:15:57.945Z,20.7
2016-02-15T07:16:57.386Z,20.8
2016-02-15T07:17:56.982Z,20.8
2016-02-15T07:18:57.985Z,20.8
2016-02-15T07:19:57.534Z,20.9
2016-02-15T07:20:57.318Z,20.9
2016-02-15T07:21:57.102Z,20.9
2016-02-15T07:22:56.902Z,20.9
2016-02-15T07:23:56.452Z,20.9
2016-02-15T07:24:55.984Z,20.9
2016-02-15T07:25:55.535Z,20.9
2016-02-15T07:26:55.319Z,20.9
2016-02-15T07:27:55.164Z,20.9
2016-02-15T07:28:56.167Z,20.9
2016-02-15T07:29:55.967Z,20.9
2016-02-15T07:30:55.501Z,20.9
2016-02-15T07:31:55.067Z,20.9
2016-02-15T07:32:54.585Z,21
2016-02-15T07:33:54.134Z,20.9
2016-02-15T07:34:53.669Z,21
2016-02-15T07:35:53.202Z,21
2016-02-15T07:36:52.752Z,21
2016-02-15T07:37:52.349Z,21
2016-02-15T07:38:53.476Z,21
2016-02-15T07:39:52.901Z,21
2016-02-15T07:40:52.435Z,21
2016-02-15T07:41:51.969Z,21
2016-02-15T07:42:51.658Z,21
2016-02-15T07:43:51.052Z,21
2016-02-15T07:44:50.602Z,21
2016-02-15T07:45:50.260Z,21
2016-02-15T07:46:49.669Z,21
2016-02-15T07:47:49.031Z,21
2016-02-15T07:48:50.019Z,21.1
2016-02-15T07:49:49.302Z,21
2016-02-15T07:50:48.587Z,21
2016-02-15T07:51:47.870Z,21
2016-02-15T07:52:47.170Z,21
2016-02-15T07:53:46.454Z,21.1
2016-02-15T07:54:45.737Z,21
2016-02-15T07:55:45.022Z,21.1
2016-02-15T07:56:44.056Z,21
2016-02-15T07:57:43.153Z,21
2016-02-15T07:58:44.155Z,21
2016-02-15T07:59:43.173Z,21.1
2016-02-15T08:00:42.223Z,21
2016-02-15T08:01:41.256Z,21
2016-02-15T08:02:40.322Z,21
2016-02-15T08:03:39.325Z,21
2016-02-15T08:04:38.343Z,21
2016-02-15T08:05:37.377Z,21
2016-02-15T08:06:36.427Z,21
2016-02-15T08:07:35.507Z,21
2016-02-15T08:08:36.510Z,21
2016-02-15T08:09:35.544Z,21
2016-02-15T08:10:34.577Z,21
2016-02-15T08:11:33.611Z,21
2016-02-15T08:12:32.646Z,21
2016-02-15T08:13:31.414Z,20.9
2016-02-15T08:14:30.199Z,20.9
2016-02-15T08:15:28.982Z,20.9
2016-02-15T08:16:27.749Z,20.9
2016-02-15T08:17:26.597Z,20.9
2016-02-15T08:18:27.599Z,20.9
2016-02-15T08:19:26.133Z,20.9
2016-02-15T08:20:24.714Z,20.9
2016-02-15T08:21:23.185Z,20.9
2016-02-15T08:22:21.704Z,20.9
2016-02-15T08:23:20.238Z,20.9
2016-02-15T08:24:18.756Z,20.9
2016-02-15T08:25:17.289Z,20.8
2016-02-15T08:26:15.809Z,20.9
2016-02-15T08:27:14.404Z,20.8
2016-02-15T08:28:15.406Z,20.8
2016-02-15T08:29:13.926Z,20.8
2016-02-15T08:30:12.457Z,20.8
2016-02-15T08:31:10.975Z,20.8
2016-02-15T08:32:09.509Z,20.8
2016-02-15T08:33:08.042Z,20.8
2016-02-15T08:34:06.545Z,20.7
2016-02-15T08:35:05.064Z,20.7
2016-02-15T08:36:03.614Z,20.8
2016-02-15T08:37:02.179Z,20.7
2016-02-15T08:38:03.181Z,20.7
2016-02-15T08:39:01.699Z,20.7
2016-02-15T08:40:00.233Z,20.7
2016-02-15T08:40:58.753Z,20.7
2016-02-15T08:41:57.411Z,20.7
2016-02-15T08:42:55.804Z,20.7
2016-02-15T08:43:54.339Z,20.7
2016-02-15T08:44:52.888Z,20.7
2016-02-15T08:45:51.391Z,20.7
2016-02-15T08:46:49.971Z,20.7
2016-02-15T08:47:50.974Z,20.7
2016-02-15T08:48:49.507Z,20.8
2016-02-15T08:49:48.277Z,20.7
2016-02-15T08:50:47.060Z,20.8
2016-02-15T08:51:45.843Z,20.8
2016-02-15T08:52:44.644Z,20.8
2016-02-15T08:53:43.146Z,20.7
2016-02-15T08:54:41.680Z,20.8
2016-02-15T08:55:39.684Z,20.7
2016-02-15T08:56:37.498Z,20.7
2016-02-15T08:57:38.501Z,20.6
2016-02-15T08:58:39.567Z,20.5
2016-02-15T08:59:40.631Z,20.5
2016-02-15T09:00:41.431Z,20.5
2016-02-15T09:01:41.996Z,20.3
2016-02-15T09:02:42.545Z,20.3
2016-02-15T09:03:42.845Z,20.2
2016-02-15T09:04:43.394Z,20.1
2016-02-15T09:05:43.961Z,20.1
2016-02-15T09:06:44.822Z,20.1
2016-02-15T09:07:45.825Z,20.1
2016-02-15T09:08:46.889Z,20
2016-02-15T09:09:47.955Z,20
2016-02-15T09:10:49.286Z,19.9
2016-02-15T09:11:50.819Z,19.9
2016-02-15T09:12:52.400Z,19.9
2016-02-15T09:13:53.966Z,19.9
2016-02-15T09:14:51.723Z,19.9
2016-02-15T09:15:49.756Z,20
2016-02-15T09:16:47.822Z,19.9
2016-02-15T09:17:48.840Z,19.9
2016-02-15T09:18:46.858Z,19.9
2016-02-15T09:19:45.126Z,19.9
2016-02-15T09:20:43.411Z,20
2016-02-15T09:21:41.944Z,20
2016-02-15T09:22:40.478Z,20
2016-02-15T09:23:38.997Z,20
2016-02-15T09:24:37.530Z,20
2016-02-15T09:25:36.049Z,20
2016-02-15T09:26:34.630Z,20.1
2016-02-15T09:27:35.647Z,20.1
2016-02-15T09:28:34.197Z,20.1
2016-02-15T09:29:32.700Z,20.1
2016-02-15T09:30:30.734Z,20.1
2016-02-15T09:31:28.502Z,20
2016-02-15T09:32:30.052Z,20
2016-02-15T09:33:31.101Z,19.9
2016-02-15T09:34:32.166Z,19.9
2016-02-15T09:35:32.841Z,19.8
2016-02-15T09:36:33.344Z,19.7
2016-02-15T09:37:34.456Z,19.7
2016-02-15T09:38:34.646Z,19.6
2016-02-15T09:39:34.695Z,19.5
2016-02-15T09:40:34.854Z,19.5
2016-02-15T09:41:35.029Z,19.4
2016-02-15T09:42:35.345Z,19.3
2016-02-15T09:43:35.925Z,19.3
2016-02-15T09:44:36.460Z,19.3
2016-02-15T09:45:37.259Z,19.3
2016-02-15T09:46:38.386Z,19.2
2016-02-15T09:47:39.390Z,19.2
2016-02-15T09:48:40.454Z,19.2
2016-02-15T09:49:41.769Z,19.2
2016-02-15T09:50:43.460Z,19.2
2016-02-15T09:51:44.931Z,19.2
2016-02-15T09:52:46.497Z,19.2
2016-02-15T09:53:48.047Z,19.3
2016-02-15T09:54:49.611Z,19.2
2016-02-15T09:55:51.192Z,19.3
2016-02-15T09:56:52.819Z,19.3
2016-02-15T09:57:53.822Z,19.3
2016-02-15T09:58:55.388Z,19.3
2016-02-15T09:59:56.968Z,19.4
2016-02-15T10:00:58.534Z,19.4
2016-02-15T10:02:00.114Z,19.4
2016-02-15T10:03:01.664Z,19.4
2016-02-15T10:04:03.260Z,19.4
2016-02-15T10:05:04.826Z,19.5
2016-02-15T10:06:06.500Z,19.5
2016-02-15T10:07:08.002Z,19.5
2016-02-15T10:08:09.005Z,19.6
2016-02-15T10:09:10.571Z,19.6
2016-02-15T10:10:12.152Z,19.7
2016-02-15T10:11:13.732Z,19.7
2016-02-15T10:12:15.282Z,19.7
2016-02-15T10:13:13.050Z,19.7
2016-02-15T10:14:10.834Z,19.8
2016-02-15T10:15:08.617Z,19.8
2016-02-15T10:16:06.387Z,19.8
2016-02-15T10:17:07.998Z,19.8
2016-02-15T10:18:09.001Z,19.8
2016-02-15T10:19:10.580Z,19.8
2016-02-15T10:20:12.116Z,19.9
2016-02-15T10:21:13.669Z,19.9
2016-02-15T10:22:15.237Z,19.9
2016-02-15T10:23:16.779Z,19.9
2016-02-15T10:24:14.561Z,20
2016-02-15T10:25:12.559Z,20
2016-02-15T10:26:10.589Z,20
2016-02-15T10:27:08.774Z,20.1
2016-02-15T10:28:09.662Z,20.1
2016-02-15T10:29:08.208Z,20.1
2016-02-15T10:30:06.709Z,20.1
2016-02-15T10:31:05.240Z,20.1
2016-02-15T10:32:03.866Z,20.1
2016-02-15T10:33:02.555Z,20.2
2016-02-15T10:34:01.306Z,20.2
2016-02-15T10:35:00.354Z,20.2
2016-02-15T10:35:59.403Z,20.3
2016-02-15T10:36:58.484Z,20.3
2016-02-15T10:37:59.486Z,20.3
2016-02-15T10:38:58.504Z,20.4
2016-02-15T10:39:57.538Z,20.4
2016-02-15T10:40:56.587Z,20.4
2016-02-15T10:41:55.606Z,20.5
2016-02-15T10:42:54.639Z,20.5
2016-02-15T10:43:53.672Z,20.5
2016-02-15T10:44:52.722Z,20.5
2016-02-15T10:45:51.740Z,20.5
2016-02-15T10:46:50.837Z,20.5
2016-02-15T10:47:51.824Z,20.6
2016-02-15T10:48:50.873Z,20.6
2016-02-15T10:49:49.908Z,20.6
2016-02-15T10:50:48.941Z,20.7
2016-02-15T10:51:48.115Z,20.7
2016-02-15T10:52:47.010Z,20.7
2016-02-15T10:53:46.043Z,20.6
2016-02-15T10:54:45.186Z,20.7
2016-02-15T10:55:44.112Z,20.7
2016-02-15T10:56:43.192Z,20.7
2016-02-15T10:57:44.210Z,20.7
2016-02-15T10:58:43.245Z,20.7
2016-02-15T10:59:42.403Z,20.7
2016-02-15T11:00:41.312Z,20.7
2016-02-15T11:01:40.470Z,20.7
2016-02-15T11:02:39.239Z,20.7
2016-02-15T11:03:38.164Z,20.7
2016-02-15T11:04:37.306Z,20.7
2016-02-15T11:05:36.357Z,20.8
2016-02-15T11:06:35.469Z,20.8
2016-02-15T11:07:36.330Z,20.8
2016-02-15T11:08:35.365Z,20.8
2016-02-15T11:09:34.664Z,20.8
2016-02-15T11:10:34.197Z,20.9
2016-02-15T11:11:33.748Z,20.9
2016-02-15T11:12:33.282Z,20.9
2016-02-15T11:13:32.816Z,20.9
2016-02-15T11:14:32.366Z,20.9
2016-02-15T11:15:32.149Z,20.9
2016-02-15T11:16:32.027Z,21
2016-02-15T11:17:33.013Z,20.9
2016-02-15T11:18:33.173Z,20.9
2016-02-15T11:19:33.222Z,21
2016-02-15T11:20:33.271Z,21
2016-02-15T11:21:33.322Z,21.1
2016-02-15T11:22:33.246Z,21
2016-02-15T11:23:33.295Z,21.1
2016-02-15T11:24:33.346Z,21.1
2016-02-15T11:25:33.379Z,21.1
2016-02-15T11:26:33.740Z,21.1
2016-02-15T11:27:34.744Z,21.1
2016-02-15T11:28:35.309Z,21.1
2016-02-15T11:29:35.968Z,21.1
2016-02-15T11:30:36.409Z,21.1
2016-02-15T11:31:36.958Z,21.1
2016-02-15T11:32:37.523Z,21.1
2016-02-15T11:33:38.181Z,21.1
2016-02-15T11:34:38.622Z,21.1
2016-02-15T11:35:39.312Z,21.1
2016-02-15T11:36:39.908Z,21.2
2016-02-15T11:37:40.787Z,21.2
2016-02-15T11:38:41.336Z,21.2
2016-02-15T11:39:41.900Z,21.2
2016-02-15T11:40:42.825Z,21.2
2016-02-15T11:41:43.516Z,21.2
2016-02-15T11:42:44.316Z,21.2
2016-02-15T11:43:45.130Z,21.2
2016-02-15T11:44:45.930Z,21.3
2016-02-15T11:45:46.855Z,21.2
2016-02-15T11:46:47.858Z,21.2
2016-02-15T11:47:48.860Z,21.3
2016-02-15T11:48:49.925Z,21.2
2016-02-15T11:49:50.991Z,21.2
2016-02-15T11:50:52.040Z,21.3
2016-02-15T11:51:53.121Z,21.3
2016-02-15T11:52:54.280Z,21.3
2016-02-15T11:53:55.235Z,21.3
2016-02-15T11:54:56.426Z,21.3
2016-02-15T11:55:57.351Z,21.3
2016-02-15T11:56:58.462Z,21.3
2016-02-15T11:57:59.465Z,21.3
2016-02-15T11:59:00.531Z,21.3
2016-02-15T12:00:01.626Z,21.3
2016-02-15T12:01:02.645Z,21.3
2016-02-15T12:02:03.695Z,21.3
2016-02-15T12:03:05.135Z,21.3
2016-02-15T12:04:06.325Z,21.3
2016-02-15T12:05:07.640Z,21.3
2016-02-15T12:06:08.956Z,21.3
2016-02-15T12:07:10.442Z,21.3
2016-02-15T12:08:11.336Z,21.4
2016-02-15T12:09:12.636Z,21.4
2016-02-15T12:10:13.950Z,21.3
2016-02-15T12:11:15.641Z,21.4
2016-02-15T12:12:17.097Z,21.4
2016-02-15T12:13:18.664Z,21.4
2016-02-15T12:14:20.230Z,21.4
2016-02-15T12:15:21.795Z,21.4
2016-02-15T12:16:23.469Z,21.4
2016-02-15T12:17:25.097Z,21.4
2016-02-15T12:18:25.991Z,21.4
2016-02-15T12:19:27.556Z,21.4
2016-02-15T12:20:29.246Z,21.4
2016-02-15T12:21:30.686Z,21.4
2016-02-15T12:22:32.252Z,21.5
2016-02-15T12:23:33.941Z,21.4
2016-02-15T12:24:35.382Z,21.4
2016-02-15T12:25:36.947Z,21.4
2016-02-15T12:26:38.527Z,21.5
2016-02-15T12:27:40.140Z,21.4
2016-02-15T12:28:41.142Z,21.4
2016-02-15T12:29:42.707Z,21.5
2016-02-15T12:30:44.273Z,21.5
2016-02-15T12:31:45.962Z,21.5
2016-02-15T12:32:47.528Z,21.5
2016-02-15T12:33:48.984Z,21.5
2016-02-15T12:34:50.548Z,21.5
2016-02-15T12:35:52.114Z,21.5
2016-02-15T12:36:53.695Z,21.5
2016-02-15T12:37:55.292Z,21.5
2016-02-15T12:38:56.309Z,21.5
2016-02-15T12:39:57.984Z,21.5
2016-02-15T12:40:59.565Z,21.5
2016-02-15T12:42:01.114Z,21.5
2016-02-15T12:43:02.587Z,21.5
2016-02-15T12:44:04.136Z,21.5
2016-02-15T12:45:05.717Z,21.5
2016-02-15T12:46:03.469Z,21.5
2016-02-15T12:47:01.238Z,21.5
2016-02-15T12:47:59.052Z,21.5
2016-02-15T12:49:00.071Z,21.5
2016-02-15T12:49:57.949Z,21.5
2016-02-15T12:50:55.717Z,21.5
2016-02-15T12:51:53.360Z,21.5
2016-02-15T12:52:51.129Z,21.5
2016-02-15T12:53:48.897Z,21.5
2016-02-15T12:54:46.665Z,21.5
2016-02-15T12:55:44.434Z,21.5
2016-02-15T12:56:42.187Z,21.5
2016-02-15T12:57:40.018Z,21.5
2016-02-15T12:58:41.020Z,21.5
2016-02-15T12:59:38.787Z,21.5
2016-02-15T13:00:36.557Z,21.5
2016-02-15T13:01:34.575Z,21.6
2016-02-15T13:02:32.327Z,21.5
2016-02-15T13:03:30.112Z,21.6
2016-02-15T13:04:28.254Z,21.6
2016-02-15T13:05:26.164Z,21.6
2016-02-15T13:06:24.292Z,21.6
2016-02-15T13:07:22.262Z,21.6
2016-02-15T13:08:23.265Z,21.6
2016-02-15T13:09:21.284Z,21.6
2016-02-15T13:10:19.427Z,21.6
2016-02-15T13:11:17.442Z,21.6
2016-02-15T13:12:15.336Z,21.7
2016-02-15T13:13:13.355Z,21.6
2016-02-15T13:14:11.389Z,21.6
2016-02-15T13:15:09.406Z,21.6
2016-02-15T13:16:07.424Z,21.6
2016-02-15T13:17:05.506Z,21.6
2016-02-15T13:18:06.508Z,21.6
2016-02-15T13:19:04.526Z,21.7
2016-02-15T13:20:02.545Z,21.6
2016-02-15T13:21:00.563Z,21.7
2016-02-15T13:21:58.707Z,21.6